Time;durP1;ratioP1;P1;durP2;ratioP2;P2;SDS_P1;SDS_P2;PMS_P1;PMS_P2;Temp;Humidity;BMP_temperature;BMP_pressure;BME280_temperature;BME280_humidity;BME280_pressure;Samples;Min_cycle;Max_cycle;Signal;HPM_P1;HPM_P2
2022/01/07 00:02:06;;;;;;;;;14.25;11.75;;;;;-147.17;100.00;50418.81;5042154;28;51279;-60
2022/01/07 00:04:32;;;;;;;;;10.50;9.75;;;;;-147.17;100.00;50430.63;5037918;28;52242;-60
2022/01/07 00:06:57;;;;;;;;;12.25;12.25;;;;;-147.17;100.00;50405.03;5040902;28;51032;-59
2022/01/07 00:09:23;;;;;;;;;10.75;8.00;;;;;-147.17;100.00;50401.09;5035292;28;51323;-59
2022/01/07 00:11:48;;;;;;;;;11.25;10.75;;;;;-147.17;100.00;50357.78;5039411;28;51286;-58
2022/01/07 00:14:13;;;;;;;;;13.00;11.75;;;;;-147.17;100.00;50363.69;5038687;28;51956;-59
2022/01/07 00:16:39;;;;;;;;;13.25;12.00;;;;;-147.17;100.00;50353.84;5050310;28;51154;-59
2022/01/07 00:19:04;;;;;;;;;17.50;14.25;;;;;-147.17;100.00;50371.56;5044928;28;51094;-60
2022/01/07 00:21:30;;;;;;;;;15.25;13.50;;;;;-147.17;100.00;50340.06;5036443;28;51406;-59
2022/01/07 00:23:55;;;;;;;;;13.00;11.25;;;;;-147.17;100.00;50340.06;5037262;28;52749;-59
2022/01/07 00:26:21;;;;;;;;;11.50;10.25;;;;;-147.17;100.00;50336.13;5038698;28;51136;-59
2022/01/07 00:28:46;;;;;;;;;11.75;10.00;;;;;-147.17;100.00;50345.97;5042818;28;51246;-60
2022/01/07 00:31:11;;;;;;;;;17.25;15.75;;;;;-147.17;100.00;50296.78;5040562;28;51143;-60
2022/01/07 00:33:37;;;;;;;;;11.75;11.00;;;;;-147.17;100.00;50328.25;5039553;28;52144;-58
2022/01/07 00:36:03;;;;;;;;;10.75;10.00;;;;;-147.17;100.00;50324.31;5040075;28;51228;-59
2022/01/07 00:38:30;;;;;;;;;13.00;11.75;;;;;-147.17;100.00;50330.22;5043419;28;51174;-59
2022/01/07 00:40:56;;;;;;;;;9.75;9.75;;;;;-147.17;100.00;50302.69;5043733;28;51393;-57
2022/01/07 00:43:22;;;;;;;;;13.00;13.00;;;;;-147.17;100.00;50298.75;5036545;28;53122;-57
2022/01/07 00:45:47;;;;;;;;;13.00;10.75;;;;;-147.17;100.00;50269.22;5032637;28;51539;-58
2022/01/07 00:48:13;;;;;;;;;10.25;9.25;;;;;-147.17;100.00;50279.06;5038895;28;51181;-59
2022/01/07 00:50:38;;;;;;;;;9.25;9.25;;;;;-147.17;100.00;50294.81;5038687;28;51157;-60
2022/01/07 00:53:03;;;;;;;;;10.50;9.50;;;;;-147.17;100.00;50271.19;5038963;28;52430;-59
2022/01/07 00:55:29;;;;;;;;;7.00;6.25;;;;;-147.17;100.00;50233.78;5035696;28;51213;-59
2022/01/07 00:57:55;;;;;;;;;10.00;8.50;;;;;-147.17;100.00;50318.41;5036023;28;52192;-59
2022/01/07 01:00:22;;;;;;;;;12.00;11.50;;;;;-147.17;100.00;50279.06;5042145;28;51299;-57
2022/01/07 01:02:48;;;;;;;;;8.25;7.50;;;;;-147.17;100.00;50271.19;5042993;28;51179;-57
2022/01/07 01:05:15;;;;;;;;;13.75;10.75;;;;;-147.17;100.00;50277.09;5038298;28;51197;-58
2022/01/07 01:07:41;;;;;;;;;11.25;10.00;;;;;-147.17;100.00;50288.91;5044614;28;51200;-58
2022/01/07 01:10:08;;;;;;;;;12.75;10.75;;;;;-147.17;100.00;50281.03;5039101;28;51340;-58
2022/01/07 01:12:35;;;;;;;;;13.50;10.25;;;;;-147.17;100.00;50279.06;5045971;28;51975;-58
2022/01/07 01:15:02;;;;;;;;;12.75;11.75;;;;;-147.17;100.00;50259.38;5041785;28;51172;-58
2022/01/07 01:17:27;;;;;;;;;10.50;9.50;;;;;-147.17;100.00;50259.38;5045267;28;51177;-58
2022/01/07 01:19:52;;;;;;;;;2.50;2.00;;;;;-147.17;100.00;50257.41;5047876;28;51133;-59
2022/01/07 01:22:18;;;;;;;;;10.25;10.25;;;;;-147.17;100.00;50247.56;5047069;28;52564;-59
2022/01/07 01:24:43;;;;;;;;;9.25;9.00;;;;;-147.17;100.00;50263.31;5040633;28;51083;-59
2022/01/07 01:27:09;;;;;;;;;9.50;9.25;;;;;-147.17;100.00;50281.03;5047660;28;50980;-61
2022/01/07 01:29:34;;;;;;;;;9.75;9.00;;;;;-147.17;100.00;50277.09;5044028;28;51219;-59
2022/01/07 01:32:00;;;;;;;;;9.00;9.00;;;;;-147.17;100.00;50261.34;5045344;28;52701;-59
2022/01/07 01:34:25;;;;;;;;;10.50;9.50;;;;;-147.17;100.00;50288.91;5044424;28;51235;-59
2022/01/07 01:36:50;;;;;;;;;9.75;9.50;;;;;-147.17;100.00;50261.34;5049176;28;51065;-59
2022/01/07 01:39:16;;;;;;;;;18.25;16.25;;;;;-147.17;100.00;50281.03;5051318;28;51235;-58
2022/01/07 01:41:42;;;;;;;;;14.75;13.00;;;;;-147.17;100.00;50288.91;5045850;28;51097;-57
2022/01/07 01:44:08;;;;;;;;;10.00;9.50;;;;;-147.17;100.00;50281.03;5045564;28;51294;-58
2022/01/07 01:46:34;;;;;;;;;10.00;10.00;;;;;-147.17;100.00;50284.97;5050122;28;50926;-59
2022/01/07 01:48:59;;;;;;;;;12.75;11.75;;;;;-147.17;100.00;50277.09;5050334;28;51235;-58
2022/01/07 01:51:25;;;;;;;;;12.75;10.75;;;;;-147.17;100.00;50281.03;5047653;28;51903;-58
2022/01/07 01:53:50;;;;;;;;;13.25;10.75;;;;;-147.17;100.00;50273.16;5041777;28;51122;-58
2022/01/07 01:56:16;;;;;;;;;6.75;6.25;;;;;-147.17;100.00;50265.28;5048348;28;51080;-60
2022/01/07 01:58:41;;;;;;;;;10.00;9.75;;;;;-147.17;100.00;50284.97;5051382;28;53128;-59
2022/01/07 02:01:07;;;;;;;;;10.00;9.00;;;;;-147.17;100.00;50265.28;5050381;28;51385;-59
2022/01/07 02:03:32;;;;;;;;;12.00;10.00;;;;;-147.17;100.00;50284.97;5050196;28;51118;-59
2022/01/07 02:05:58;;;;;;;;;10.50;10.50;;;;;-147.17;100.00;50245.59;5049462;28;52285;-59
2022/01/07 02:08:24;;;;;;;;;9.00;9.00;;;;;-147.17;100.00;50269.22;5036552;28;52141;-59
2022/01/07 02:10:49;;;;;;;;;11.25;11.00;;;;;-147.17;100.00;50294.81;5043997;28;52973;-58
2022/01/07 02:13:17;;;;;;;;;10.50;9.00;;;;;-147.17;100.00;50279.06;5042171;28;51162;-58
2022/01/07 02:15:42;;;;;;;;;7.25;7.25;;;;;-147.17;100.00;50269.22;5045608;28;51244;-58
2022/01/07 02:18:08;;;;;;;;;14.25;10.50;;;;;-147.17;100.00;50259.38;5062073;28;51165;-58
2022/01/07 02:20:33;;;;;;;;;10.00;9.25;;;;;-147.17;100.00;50257.41;5043569;28;51244;-58
2022/01/07 02:22:59;;;;;;;;;9.75;9.00;;;;;-147.17;100.00;50273.16;5044126;28;51118;-59
2022/01/07 02:25:25;;;;;;;;;10.00;10.00;;;;;-147.17;100.00;50267.25;5050964;28;51336;-59
2022/01/07 02:27:51;;;;;;;;;12.50;11.50;;;;;-147.17;100.00;50257.41;5035655;28;52340;-59
2022/01/07 02:30:19;;;;;;;;;11.00;10.00;;;;;-147.17;100.00;50259.38;5034917;28;52120;-60
2022/01/07 02:32:46;;;;;;;;;11.00;10.00;;;;;-147.17;100.00;50275.13;5045698;28;51304;-59
2022/01/07 02:35:12;;;;;;;;;10.00;9.50;;;;;-147.17;100.00;50253.47;5048677;28;51131;-59
2022/01/07 02:37:38;;;;;;;;;11.00;11.00;;;;;-147.17;100.00;50237.72;5042253;28;51312;-59
2022/01/07 02:40:05;;;;;;;;;10.00;10.00;;;;;-147.17;100.00;50239.69;5044898;28;51761;-58
2022/01/07 02:42:30;;;;;;;;;13.25;10.75;;;;;-147.17;100.00;50283.00;5045368;28;51419;-59
2022/01/07 02:44:56;;;;;;;;;10.75;10.75;;;;;-147.17;100.00;50263.31;5046627;28;51700;-59
2022/01/07 02:47:22;;;;;;;;;10.00;9.25;;;;;-147.17;100.00;50249.53;5040614;28;51501;-58
2022/01/07 02:49:48;;;;;;;;;9.75;9.25;;;;;-147.17;100.00;50273.16;5042400;28;52138;-59
2022/01/07 02:52:13;;;;;;;;;10.50;9.50;;;;;-147.17;100.00;50253.47;5040231;28;51163;-59
2022/01/07 02:54:39;;;;;;;;;9.75;8.50;;;;;-147.17;100.00;50275.13;5047533;28;51333;-59
2022/01/07 02:57:04;;;;;;;;;11.00;10.50;;;;;-147.17;100.00;50267.25;5048945;28;51252;-59
2022/01/07 02:59:30;;;;;;;;;9.75;9.75;;;;;-147.17;100.00;50277.09;5034882;28;53536;-59
2022/01/07 03:01:55;;;;;;;;;9.00;9.00;;;;;-147.17;100.00;50247.56;5047281;28;51177;-59
2022/01/07 03:04:23;;;;;;;;;7.50;7.50;;;;;-147.17;100.00;50296.78;5038508;28;52752;-59
2022/01/07 03:06:48;;;;;;;;;9.75;9.00;;;;;-147.17;100.00;50281.03;5045503;28;51337;-59
2022/01/07 03:09:14;;;;;;;;;8.75;8.75;;;;;-147.17;100.00;50281.03;5043593;28;52139;-59
2022/01/07 03:11:39;;;;;;;;;9.00;9.00;;;;;-147.17;100.00;50312.53;5044407;28;51138;-59
2022/01/07 03:14:05;;;;;;;;;10.00;10.00;;;;;-147.17;100.00;50281.03;5035403;28;51302;-59
2022/01/07 03:16:30;;;;;;;;;11.00;9.00;;;;;-147.17;100.00;50292.84;5042838;28;51254;-59
2022/01/07 03:18:56;;;;;;;;;9.75;9.00;;;;;-147.17;100.00;50273.16;5040556;28;51659;-59
2022/01/07 03:21:21;;;;;;;;;9.25;7.50;;;;;-147.17;100.00;50281.03;5037435;28;51207;-59
2022/01/07 03:23:46;;;;;;;;;7.25;7.00;;;;;-147.17;100.00;50288.91;5042950;28;51641;-59
2022/01/07 03:26:12;;;;;;;;;9.00;9.00;;;;;-147.17;100.00;50265.28;5047062;28;52170;-58
2022/01/07 03:28:38;;;;;;;;;8.00;8.00;;;;;-147.17;100.00;50281.03;5044777;28;51153;-58
2022/01/07 03:31:05;;;;;;;;;7.25;7.25;;;;;-147.17;100.00;50275.13;5047482;28;51230;-58
2022/01/07 03:33:30;;;;;;;;;9.50;9.50;;;;;-147.17;100.00;50296.78;5046140;28;51413;-59
2022/01/07 03:35:55;;;;;;;;;9.00;8.75;;;;;-147.17;100.00;50316.44;5042747;28;51261;-58
2022/01/07 03:38:21;;;;;;;;;6.50;6.50;;;;;-147.17;100.00;50269.22;5037231;28;51899;-59
2022/01/07 03:40:48;;;;;;;;;7.00;7.00;;;;;-147.17;100.00;50300.72;5043041;28;51016;-59
2022/01/07 03:43:13;;;;;;;;;7.00;7.00;;;;;-147.17;100.00;50286.94;5034887;28;51349;-59
2022/01/07 03:45:39;;;;;;;;;8.75;7.00;;;;;-147.17;100.00;50265.28;5036259;28;51108;-59
2022/01/07 03:48:05;;;;;;;;;7.00;7.00;;;;;-147.17;100.00;50312.53;5030319;28;51280;-59
2022/01/07 03:50:30;;;;;;;;;9.75;7.50;;;;;-147.17;100.00;50298.75;5053042;28;51737;-59
2022/01/07 03:52:57;;;;;;;;;9.25;8.50;;;;;-147.17;100.00;50281.03;5047780;28;51273;-61
2022/01/07 03:55:25;;;;;;;;;5.00;5.00;;;;;-147.17;100.00;50308.59;5044296;28;51127;-58
2022/01/07 03:57:51;;;;;;;;;6.00;4.50;;;;;-147.17;100.00;50286.94;5045776;28;52883;-59
2022/01/07 04:00:23;;;;;;;;;7.75;7.00;;;;;-147.17;100.00;50265.28;5040093;28;51157;-59
2022/01/07 04:02:49;;;;;;;;;6.25;3.50;;;;;-147.17;100.00;50296.78;5049324;28;52558;-59
2022/01/07 04:05:16;;;;;;;;;9.75;9.00;;;;;-147.17;100.00;50300.72;5051315;28;51485;-59
2022/01/07 04:07:41;;;;;;;;;6.50;6.00;;;;;-147.17;100.00;50290.88;5044246;28;52900;-59
2022/01/07 04:10:07;;;;;;;;;6.25;6.00;;;;;-147.17;100.00;50286.94;5047716;28;51176;-59
2022/01/07 04:12:32;;;;;;;;;6.25;6.00;;;;;-147.17;100.00;50310.56;5044510;28;51033;-62
2022/01/07 04:15:08;;;;;;;;;7.00;5.50;;;;;-147.17;100.00;50308.59;5047900;28;51107;-59
2022/01/07 04:17:48;;;;;;;;;7.00;6.25;;;;;-147.17;100.00;50304.66;5043270;28;51973;-59
2022/01/07 04:20:20;;;;;;;;;6.25;6.00;;;;;-147.17;100.00;50296.78;5046086;28;52089;-60
2022/01/07 04:22:46;;;;;;;;;7.00;6.25;;;;;-147.17;100.00;50316.44;5047757;28;51300;-59
2022/01/07 04:25:17;;;;;;;;;6.25;6.00;;;;;-147.17;100.00;50300.72;5042967;28;51512;-59
2022/01/07 04:27:45;;;;;;;;;6.00;6.00;;;;;-147.17;100.00;50288.91;5041124;28;51289;-59
2022/01/07 04:30:12;;;;;;;;;5.50;5.00;;;;;-147.17;100.00;50277.09;5045097;28;51119;-59
2022/01/07 04:32:37;;;;;;;;;6.00;5.00;;;;;-147.17;100.00;50296.78;5042639;28;51773;-60
2022/01/07 04:35:04;;;;;;;;;6.00;5.50;;;;;-147.17;100.00;50284.97;5045522;28;51417;-59
2022/01/07 04:37:29;;;;;;;;;5.50;5.50;;;;;-147.17;100.00;50284.97;5045601;28;51255;-59
2022/01/07 04:39:55;;;;;;;;;5.50;4.50;;;;;-147.17;100.00;50306.63;5052348;28;51407;-59
2022/01/07 04:42:20;;;;;;;;;8.25;6.75;;;;;-147.17;100.00;50304.66;5045947;28;51092;-59
2022/01/07 04:44:45;;;;;;;;;6.75;6.00;;;;;-147.17;100.00;50332.19;5036649;28;51711;-59
2022/01/07 04:47:11;;;;;;;;;7.25;6.25;;;;;-147.17;100.00;50328.25;5045026;28;51204;-59
2022/01/07 04:49:37;;;;;;;;;5.00;5.00;;;;;-147.17;100.00;50308.59;5045799;28;51058;-59
2022/01/07 04:52:04;;;;;;;;;5.00;5.00;;;;;-147.17;100.00;50316.44;5032348;28;51169;-59
2022/01/07 04:54:30;;;;;;;;;5.75;4.50;;;;;-147.17;100.00;50288.91;5042912;28;51394;-59
2022/01/07 04:56:55;;;;;;;;;5.25;5.25;;;;;-147.17;100.00;50296.78;5045477;28;51936;-59
2022/01/07 04:59:21;;;;;;;;;5.75;5.00;;;;;-147.17;100.00;50320.38;5045166;28;51246;-59
2022/01/07 05:01:47;;;;;;;;;5.25;5.00;;;;;-147.17;100.00;50314.47;5044868;28;51141;-59
2022/01/07 05:04:13;;;;;;;;;5.00;3.00;;;;;-147.17;100.00;50344.00;5039152;28;52525;-59
2022/01/07 05:06:45;;;;;;;;;5.00;5.00;;;;;-147.17;100.00;50324.31;5034310;28;51803;-60
2022/01/07 05:09:16;;;;;;;;;5.75;4.50;;;;;-147.17;100.00;50316.44;5047729;28;51288;-59
2022/01/07 05:11:43;;;;;;;;;5.00;5.00;;;;;-147.17;100.00;50304.66;5044027;28;53078;-59
2022/01/07 05:14:09;;;;;;;;;5.00;5.00;;;;;-147.17;100.00;50336.13;5036673;28;51283;-59
2022/01/07 05:16:34;;;;;;;;;6.00;5.00;;;;;-147.17;100.00;50345.97;5043004;28;52094;-59
2022/01/07 05:19:00;;;;;;;;;6.00;5.25;;;;;-147.17;100.00;50312.53;5043340;28;51012;-59
2022/01/07 05:21:26;;;;;;;;;3.50;3.50;;;;;-147.17;100.00;50330.22;5045746;28;51142;-59
2022/01/07 05:23:51;;;;;;;;;3.50;3.50;;;;;-147.17;100.00;50324.31;5036941;28;51249;-59
2022/01/07 05:26:17;;;;;;;;;6.00;5.50;;;;;-147.17;100.00;50312.53;5060674;27;52822;-60
2022/01/07 05:28:42;;;;;;;;;6.00;5.25;;;;;-147.17;100.00;50292.84;5033419;28;51242;-59
2022/01/07 05:31:09;;;;;;;;;3.00;3.00;;;;;-147.17;100.00;50314.47;5049380;28;51157;-59
2022/01/07 05:33:34;;;;;;;;;3.00;3.00;;;;;-147.17;100.00;50298.75;5048494;28;51075;-59
2022/01/07 05:36:01;;;;;;;;;5.00;5.00;;;;;-147.17;100.00;50328.25;5046620;28;51958;-59
2022/01/07 05:38:27;;;;;;;;;5.25;5.00;;;;;-147.17;100.00;50308.59;5046846;28;51083;-59
2022/01/07 05:40:53;;;;;;;;;6.00;5.00;;;;;-147.17;100.00;50326.28;5046455;28;51352;-59
2022/01/07 05:43:18;;;;;;;;;5.00;4.50;;;;;-147.17;100.00;50310.56;5043652;28;51147;-59
2022/01/07 05:45:45;;;;;;;;;4.50;4.50;;;;;-147.17;100.00;50308.59;5040701;28;52075;-59
2022/01/07 05:48:12;;;;;;;;;5.00;3.00;;;;;-147.17;100.00;50328.25;5043290;28;52685;-59
2022/01/07 05:50:37;;;;;;;;;2.25;2.00;;;;;-147.17;100.00;50318.41;5049312;28;51163;-59
2022/01/07 05:53:02;;;;;;;;;4.25;3.50;;;;;-147.17;100.00;50336.13;5046559;28;51121;-59
2022/01/07 05:55:28;;;;;;;;;9.25;7.00;;;;;-147.17;100.00;50316.44;5043055;28;52146;-59
2022/01/07 05:57:53;;;;;;;;;4.00;3.00;;;;;-147.17;100.00;50308.59;5043105;28;51152;-59
2022/01/07 06:00:19;;;;;;;;;6.75;4.75;;;;;-147.17;100.00;50292.84;5036420;28;51272;-59
2022/01/07 06:02:44;;;;;;;;;3.00;2.25;;;;;-147.17;100.00;50304.66;5046175;28;51137;-59
2022/01/07 06:05:10;;;;;;;;;5.25;5.25;;;;;-147.17;100.00;50338.09;5045823;28;51902;-59
2022/01/07 06:07:35;;;;;;;;;6.25;5.25;;;;;-147.17;100.00;50288.91;5043995;28;51151;-59
2022/01/07 06:10:01;;;;;;;;;7.00;7.00;;;;;-147.17;100.00;50281.03;5040664;28;51735;-58
2022/01/07 06:12:26;;;;;;;;;5.50;5.50;;;;;-147.17;100.00;50298.75;5040978;28;51356;-59
2022/01/07 06:14:52;;;;;;;;;5.50;5.00;;;;;-147.17;100.00;50296.78;5041427;28;52185;-60
2022/01/07 06:17:18;;;;;;;;;5.50;5.00;;;;;-147.17;100.00;50300.72;5041347;28;51202;-60
2022/01/07 06:19:43;;;;;;;;;5.00;5.00;;;;;-147.17;100.00;50296.78;5045600;28;51478;-59
2022/01/07 06:22:09;;;;;;;;;5.00;4.75;;;;;-147.17;100.00;50296.78;5046290;28;51286;-59
2022/01/07 06:24:34;;;;;;;;;3.50;3.50;;;;;-147.17;100.00;50277.09;5045113;28;52003;-60
2022/01/07 06:26:59;;;;;;;;;5.00;5.00;;;;;-147.17;100.00;50304.66;5044318;28;51138;-60
2022/01/07 06:29:25;;;;;;;;;5.00;5.00;;;;;-147.17;100.00;50298.75;5033531;28;51342;-59
2022/01/07 06:31:50;;;;;;;;;5.00;5.00;;;;;-147.17;100.00;50292.84;5034252;28;51044;-60
2022/01/07 06:34:20;;;;;;;;;5.00;4.50;;;;;-147.17;100.00;50292.84;5043058;28;51091;-59
2022/01/07 06:36:45;;;;;;;;;7.25;6.00;;;;;-147.17;100.00;50286.94;5040898;28;51265;-59
2022/01/07 06:39:12;;;;;;;;;4.00;3.25;;;;;-147.17;100.00;50284.97;5042964;28;50980;-60
2022/01/07 06:41:37;;;;;;;;;6.00;4.50;;;;;-147.17;100.00;50277.09;5036548;28;51365;-60
2022/01/07 06:44:03;;;;;;;;;4.50;3.00;;;;;-147.17;100.00;50275.13;5045620;28;51084;-60
2022/01/07 06:46:28;;;;;;;;;5.50;5.50;;;;;-147.17;100.00;50273.16;5043126;28;51104;-59
2022/01/07 06:48:54;;;;;;;;;3.50;3.00;;;;;-147.17;100.00;50267.25;5037085;28;51109;-59
2022/01/07 06:51:19;;;;;;;;;5.00;5.00;;;;;-147.17;100.00;50243.63;5042537;28;51097;-59
2022/01/07 06:53:45;;;;;;;;;5.00;5.00;;;;;-147.17;100.00;50275.13;5045709;28;51946;-60
2022/01/07 06:56:10;;;;;;;;;5.75;5.75;;;;;-147.17;100.00;50281.03;5035527;28;51129;-59
2022/01/07 06:58:36;;;;;;;;;6.75;6.25;;;;;-147.17;100.00;50281.03;5048890;28;51772;-59
2022/01/07 07:01:01;;;;;;;;;36.25;33.00;;;;;-147.17;100.00;50269.22;5037509;28;51775;-59
2022/01/07 07:03:26;;;;;;;;;7.00;7.00;;;;;-147.17;100.00;50277.09;5030724;28;51078;-60
2022/01/07 07:05:52;;;;;;;;;5.00;5.00;;;;;-147.17;100.00;50253.47;5025382;28;51276;-60
2022/01/07 07:08:18;;;;;;;;;5.00;5.00;;;;;-147.17;100.00;50245.59;5048298;28;51086;-59
2022/01/07 07:10:43;;;;;;;;;5.75;5.75;;;;;-147.17;100.00;50267.25;5044509;28;51286;-60
2022/01/07 07:13:08;;;;;;;;;12.00;10.25;;;;;-147.17;100.00;50249.53;5047184;28;52041;-60
2022/01/07 07:15:34;;;;;;;;;5.25;3.50;;;;;-147.17;100.00;50273.16;5051164;28;51122;-60
2022/01/07 07:17:59;;;;;;;;;6.25;5.25;;;;;-147.17;100.00;50277.09;5050431;28;51030;-59
2022/01/07 07:20:25;;;;;;;;;3.00;3.00;;;;;-147.17;100.00;50249.53;5052626;28;51356;-60
2022/01/07 07:22:50;;;;;;;;;5.50;5.00;;;;;-147.17;100.00;50286.94;5054859;28;51201;-59
2022/01/07 07:25:15;;;;;;;;;6.00;5.25;;;;;-147.17;100.00;50251.50;5055052;28;51218;-62
2022/01/07 07:27:41;;;;;;;;;5.00;5.00;;;;;-147.17;100.00;50279.06;5055307;28;50971;-60
2022/01/07 07:30:09;;;;;;;;;12.50;11.50;;;;;-147.17;100.00;50298.75;5054047;28;51009;-59
2022/01/07 07:32:36;;;;;;;;;6.00;6.00;;;;;-147.17;100.00;50286.94;5051101;28;53487;-60
2022/01/07 07:37:30;;;;;;;;;6.00;6.00;;;;;-147.17;100.00;50253.47;5053917;28;51060;-59
2022/01/07 07:39:55;;;;;;;;;7.25;6.00;;;;;-147.17;100.00;50265.28;5054936;28;51010;-59
2022/01/07 07:42:21;;;;;;;;;6.50;6.00;;;;;-147.17;100.00;50273.16;5051833;28;51146;-59
2022/01/07 07:44:46;;;;;;;;;7.25;6.50;;;;;-147.17;100.00;50255.44;5045728;28;51255;-59
2022/01/07 07:47:12;;;;;;;;;9.25;7.25;;;;;-147.17;100.00;50284.97;5047719;28;51638;-60
2022/01/07 07:49:37;;;;;;;;;6.00;4.75;;;;;-147.17;100.00;50269.22;5044842;28;51197;-59
2022/01/07 07:52:04;;;;;;;;;3.00;2.25;;;;;-147.17;100.00;50275.13;5046924;28;52350;-59
2022/01/07 07:54:29;;;;;;;;;4.25;4.25;;;;;-147.17;100.00;50284.97;5044569;28;51237;-59
2022/01/07 07:56:57;;;;;;;;;5.75;4.50;;;;;-147.17;100.00;50269.22;5046597;28;51249;-59
2022/01/07 07:59:23;;;;;;;;;3.75;3.25;;;;;-147.17;100.00;50281.03;5039362;28;51360;-58
2022/01/07 08:01:49;;;;;;;;;8.00;8.00;;;;;-147.17;100.00;50273.16;5049622;28;51170;-58
2022/01/07 08:04:15;;;;;;;;;7.00;6.50;;;;;-147.17;100.00;50249.53;5048680;28;51085;-59
2022/01/07 08:06:41;;;;;;;;;5.50;4.25;;;;;-147.17;100.00;50239.69;5025949;28;51188;-58
2022/01/07 08:09:06;;;;;;;;;7.00;5.00;;;;;-147.17;100.00;50265.28;5046108;28;51052;-58
2022/01/07 08:11:39;;;;;;;;;11.50;8.50;;;;;-147.17;100.00;50265.28;5048149;28;51183;-59
2022/01/07 08:16:48;;;;;;;;;5.75;3.75;;;;;-147.17;100.00;50261.34;5045289;28;52606;-58
2022/01/07 08:19:14;;;;;;;;;4.00;4.00;;;;;-147.17;100.00;50277.09;5044161;28;52916;-57
2022/01/07 08:21:39;;;;;;;;;2.75;2.00;;;;;-147.17;100.00;50253.47;5043947;28;51881;-59
2022/01/07 08:24:05;;;;;;;;;6.00;4.50;;;;;-147.17;100.00;50281.03;5044272;28;51215;-57
2022/01/07 08:26:30;;;;;;;;;8.75;6.00;;;;;-147.17;100.00;50233.78;5047470;28;52355;-59
2022/01/07 08:29:00;;;;;;;;;6.00;5.25;;;;;-147.17;100.00;50261.34;5045600;28;51154;-57
2022/01/07 08:36:36;;;;;;;;;3.00;2.00;;;;;-147.17;100.00;50279.06;5046746;28;52509;-58
2022/01/07 08:39:04;;;;;;;;;3.75;2.00;;;;;-147.17;100.00;50223.94;5043736;28;51373;-58
2022/01/07 08:41:32;;;;;;;;;4.00;3.75;;;;;-147.17;100.00;50249.53;5046712;28;51981;-58
2022/01/07 08:43:57;;;;;;;;;2.00;2.00;;;;;-147.17;100.00;50249.53;5043609;28;51273;-58
2022/01/07 08:46:23;;;;;;;;;2.25;2.25;;;;;-147.17;100.00;50269.22;5039551;28;51222;-59
2022/01/07 08:48:49;;;;;;;;;1.50;1.50;;;;;-147.17;100.00;50273.16;5046293;28;51252;-60
2022/01/07 08:51:14;;;;;;;;;2.00;2.00;;;;;-147.17;100.00;50265.28;5045854;28;51384;-59
2022/01/07 08:53:39;;;;;;;;;3.00;2.00;;;;;-147.17;100.00;50269.22;5049619;28;51256;-59
2022/01/07 08:56:06;;;;;;;;;7.50;7.50;;;;;-147.17;100.00;50275.13;5049398;28;51685;-59
2022/01/07 08:58:32;;;;;;;;;1.50;1.50;;;;;-147.17;100.00;50273.16;5046998;28;51395;-60
2022/01/07 09:00:57;;;;;;;;;2.25;2.00;;;;;-147.17;100.00;50269.22;5048428;28;51118;-59
2022/01/07 09:03:24;;;;;;;;;0.75;0.00;;;;;-147.17;100.00;50269.22;5052750;28;51063;-61
2022/01/07 09:05:49;;;;;;;;;1.00;1.00;;;;;-147.17;100.00;50277.09;5046800;28;51201;-63
2022/01/07 09:08:14;;;;;;;;;1.25;1.25;;;;;-147.17;100.00;50281.03;5048200;28;51230;-62
2022/01/07 09:10:40;;;;;;;;;1.00;0.25;;;;;-147.17;100.00;50288.91;5046724;28;51165;-61
2022/01/07 09:13:06;;;;;;;;;1.25;1.25;;;;;-147.17;100.00;50269.22;5047557;28;51234;-61
2022/01/07 09:15:32;;;;;;;;;3.00;3.00;;;;;-147.17;100.00;50269.22;5050077;28;51376;-60
2022/01/07 09:17:57;;;;;;;;;2.25;2.00;;;;;-147.17;100.00;50275.13;5043787;28;51270;-61
2022/01/07 09:20:23;;;;;;;;;1.75;1.25;;;;;-147.17;100.00;50253.47;5045768;28;52144;-58
2022/01/07 09:22:49;;;;;;;;;3.00;2.00;;;;;-147.17;100.00;50241.66;5047312;28;52414;-59
2022/01/07 09:25:15;;;;;;;;;2.25;2.00;;;;;-147.17;100.00;50265.28;5050758;28;51414;-59
2022/01/07 09:27:42;;;;;;;;;2.00;2.00;;;;;-147.17;100.00;50253.47;5051860;28;51284;-59
2022/01/07 09:30:10;;;;;;;;;2.75;2.00;;;;;-147.17;100.00;50281.03;5045674;28;52927;-59
2022/01/07 09:32:36;;;;;;;;;3.00;2.00;;;;;-147.17;100.00;50245.59;5048053;28;51254;-60
2022/01/07 09:35:02;;;;;;;;;2.00;2.00;;;;;-147.17;100.00;50245.59;5045728;28;52473;-59
2022/01/07 09:37:27;;;;;;;;;2.25;2.25;;;;;-147.17;100.00;50267.25;5047646;28;52499;-60
2022/01/07 09:39:53;;;;;;;;;3.00;3.00;;;;;-147.17;100.00;50271.19;5052384;28;51028;-61
2022/01/07 09:42:18;;;;;;;;;3.00;2.00;;;;;-147.17;100.00;50292.84;5047296;28;51373;-59
2022/01/07 09:44:44;;;;;;;;;2.00;2.00;;;;;-147.17;100.00;50284.97;5053614;28;51183;-60
2022/01/07 09:47:11;;;;;;;;;2.25;1.00;;;;;-147.17;100.00;50308.59;5058953;27;51318;-58
2022/01/07 09:49:38;;;;;;;;;3.25;2.00;;;;;-147.17;100.00;50308.59;5051628;28;51266;-60
2022/01/07 09:52:04;;;;;;;;;1.50;1.00;;;;;-147.17;100.00;50304.66;5049901;28;51207;-60
2022/01/07 09:54:31;;;;;;;;;1.00;1.00;;;;;-147.17;100.00;50294.81;5052618;28;50992;-60
2022/01/07 09:56:57;;;;;;;;;8.50;7.00;;;;;-147.17;100.00;50300.72;5053140;28;50940;-61
2022/01/07 09:59:22;;;;;;;;;3.00;2.50;;;;;-147.17;100.00;50292.84;5050811;28;51075;-59
2022/01/07 10:01:58;;;;;;;;;1.75;1.00;;;;;-147.17;100.00;50338.09;5045757;28;51032;-60
2022/01/07 10:04:37;;;;;;;;;2.00;2.00;;;;;-147.17;100.00;50347.94;5043962;28;51234;-59
2022/01/07 10:07:14;;;;;;;;;2.50;2.00;;;;;-147.17;100.00;50367.63;5048622;28;51194;-61
2022/01/07 10:09:40;;;;;;;;;3.00;2.00;;;;;-147.17;100.00;50363.69;5050932;28;51429;-61
2022/01/07 10:12:07;;;;;;;;;6.25;6.00;;;;;-147.17;100.00;50320.38;5050385;28;51149;-62
2022/01/07 10:14:34;;;;;;;;;3.00;3.00;;;;;-147.17;100.00;50308.59;5042840;28;51354;-58
2022/01/07 10:17:01;;;;;;;;;1.50;1.50;;;;;-147.17;100.00;50345.97;5045052;28;51210;-61
2022/01/07 10:19:41;;;;;;;;;2.00;2.00;;;;;-147.17;100.00;50365.66;5045890;28;51205;-68
2022/01/07 10:22:09;;;;;;;;;2.00;1.75;;;;;-147.17;100.00;50347.94;5045643;28;51131;-69
2022/01/07 10:24:57;;;;;;;;;1.50;1.00;;;;;-147.17;100.00;50330.22;5051024;28;51086;-68
2022/01/07 10:27:25;;;;;;;;;12.25;11.25;;;;;-147.17;100.00;50363.69;5049649;28;52591;-69
2022/01/07 10:29:51;;;;;;;;;6.00;5.50;;;;;-147.17;100.00;50379.44;5051999;28;51205;-68
2022/01/07 10:32:23;;;;;;;;;2.75;1.75;;;;;-147.17;100.00;50359.75;5050777;28;51145;-58
2022/01/07 10:35:12;;;;;;;;;2.75;2.25;;;;;-147.17;100.00;50336.13;5043673;28;51218;-58
2022/01/07 10:37:59;;;;;;;;;6.00;5.00;;;;;-147.17;100.00;50334.16;5050573;28;51346;-59
2022/01/07 10:40:37;;;;;;;;;2.50;2.50;;;;;-147.17;100.00;50381.41;5042740;28;52215;-59
2022/01/07 10:43:11;;;;;;;;;1.00;1.00;;;;;-147.17;100.00;50373.53;5044292;28;51293;-58
2022/01/07 10:45:40;;;;;;;;;3.00;2.00;;;;;-147.17;100.00;50357.78;5042597;28;51260;-57
2022/01/07 10:48:09;;;;;;;;;4.25;4.25;;;;;-147.17;100.00;50316.44;5043073;28;51705;-58
2022/01/07 10:50:41;;;;;;;;;2.67;2.67;;;;;-147.17;100.00;50355.81;5042919;28;53921;-56
2022/01/07 10:53:28;;;;;;;;;3.00;1.33;;;;;-147.17;100.00;50391.25;5043402;28;51468;-58
2022/01/07 10:56:07;;;;;;;;;2.33;2.00;;;;;-147.17;100.00;50403.06;5047028;28;51194;-59
2022/01/07 10:58:51;;;;;;;;;3.00;3.00;;;;;-147.17;100.00;50351.88;5047988;28;51020;-57
2022/01/07 11:01:19;;;;;;;;;2.00;2.00;;;;;-147.17;100.00;50375.50;5043064;28;51186;-57
2022/01/07 11:03:52;;;;;;;;;2.33;1.67;;;;;-147.17;100.00;50393.22;5045274;28;51620;-59
2022/01/07 11:06:18;;;;;;;;;1.00;1.00;;;;;-147.17;100.00;50399.13;5043341;28;51201;-60
2022/01/07 11:08:44;;;;;;;;;1.00;1.00;;;;;-147.17;100.00;50418.81;5048742;28;51153;-60
2022/01/07 11:11:11;;;;;;;;;1.00;1.00;;;;;-147.17;100.00;50399.13;5049348;28;52011;-59
2022/01/07 11:13:38;;;;;;;;;11.00;11.00;;;;;-147.17;100.00;50436.53;5051183;28;50982;-60
2022/01/07 11:16:04;;;;;;;;;0.67;0.67;;;;;-147.17;100.00;50426.69;5051890;28;50870;-60